createdAt,value
2022-11-12T00:00:34.254Z,9.90
2022-11-12T00:03:20.630Z,9.90
2022-11-12T00:06:06.197Z,9.90
2022-11-12T00:08:53.708Z,9.90
2022-11-12T00:11:39.502Z,9.80
2022-11-12T00:14:25.851Z,9.80
2022-11-12T00:17:11.305Z,9.90
2022-11-12T00:19:56.919Z,9.80
2022-11-12T00:22:44.064Z,9.70
2022-11-12T00:25:30.285Z,9.70
2022-11-12T00:28:15.861Z,9.70
2022-11-12T00:31:07.833Z,9.70
2022-11-12T00:33:53.534Z,9.80
2022-11-12T00:36:39.185Z,9.80
2022-11-12T00:39:24.862Z,9.90
2022-11-12T00:42:10.519Z,10.00
2022-11-12T00:44:56.003Z,10.00
2022-11-12T00:47:41.601Z,10.00
2022-11-12T00:50:28.534Z,10.00
2022-11-12T00:53:14.250Z,10.00
2022-11-12T00:56:04.402Z,9.90
2022-11-12T00:58:50.399Z,10.00
2022-11-12T01:01:35.857Z,10.00
2022-11-12T01:04:21.798Z,10.00
2022-11-12T01:07:08.242Z,9.90
2022-11-12T01:09:54.721Z,9.90
2022-11-12T01:12:40.537Z,9.80
2022-11-12T01:15:25.807Z,9.80
2022-11-12T01:18:11.396Z,9.80
2022-11-12T01:21:01.820Z,9.70
2022-11-12T01:23:48.423Z,9.70
2022-11-12T01:26:36.501Z,9.70
2022-11-12T01:29:21.819Z,9.70
2022-11-12T01:32:08.695Z,9.80
2022-11-12T01:34:54.013Z,9.80
2022-11-12T01:37:39.705Z,9.90
2022-11-12T01:40:25.138Z,9.90
2022-11-12T01:43:14.700Z,9.80
2022-11-12T01:46:04.796Z,9.90
2022-11-12T01:49:02.956Z,9.90
2022-11-12T01:51:51.735Z,9.90
2022-11-12T01:54:38.594Z,9.90
2022-11-12T01:57:34.863Z,10.00
2022-11-12T02:00:21.050Z,10.00
2022-11-12T02:03:12.732Z,9.90
2022-11-12T02:06:03.052Z,9.90
2022-11-12T02:08:50.908Z,9.90
2022-11-12T02:11:36.851Z,9.80
2022-11-12T02:14:22.560Z,9.80
2022-11-12T02:17:09.579Z,9.70
2022-11-12T02:20:00.606Z,9.70
2022-11-12T02:22:46.011Z,9.60
2022-11-12T02:25:32.139Z,9.70
2022-11-12T02:28:18.214Z,9.80
2022-11-12T02:31:04.799Z,9.80
2022-11-12T02:33:50.443Z,9.80
2022-11-12T02:36:35.690Z,9.90
2022-11-12T02:39:21.353Z,9.90
2022-11-12T02:42:06.948Z,9.90
2022-11-12T02:44:52.941Z,9.80
2022-11-12T02:47:38.264Z,9.80
2022-11-12T02:50:24.515Z,9.90
2022-11-12T02:53:09.909Z,9.90
2022-11-12T02:55:55.461Z,9.90
2022-11-12T02:58:41.142Z,9.80
2022-11-12T03:01:27.105Z,9.70
2022-11-12T03:04:13.588Z,9.80
2022-11-12T03:06:59.269Z,9.80
2022-11-12T03:09:44.986Z,9.80
2022-11-12T03:12:31.964Z,9.80
2022-11-12T03:15:17.770Z,9.80
2022-11-12T03:18:03.473Z,9.70
2022-11-12T03:20:51.988Z,9.70
2022-11-12T03:23:38.240Z,9.70
2022-11-12T03:26:23.815Z,9.70
2022-11-12T03:29:11.427Z,9.70
2022-11-12T03:31:57.016Z,9.70
2022-11-12T03:34:43.591Z,9.70
2022-11-12T03:37:29.109Z,9.70
2022-11-12T03:40:14.886Z,9.60
2022-11-12T03:43:00.618Z,9.50
2022-11-12T03:45:46.242Z,9.50
2022-11-12T03:48:32.155Z,9.40
2022-11-12T03:51:19.030Z,9.30
2022-11-12T03:54:04.564Z,9.30
2022-11-12T03:56:50.056Z,9.50
2022-11-12T03:59:35.648Z,9.50
2022-11-12T04:02:21.280Z,9.50
2022-11-12T04:05:28.160Z,9.50
2022-11-12T04:08:38.328Z,9.40
2022-11-12T04:11:23.995Z,9.30
2022-11-12T04:14:09.184Z,9.10
2022-11-12T04:17:13.328Z,9.10
2022-11-12T04:20:17.183Z,9.10
2022-11-12T04:23:02.897Z,9.10
2022-11-12T04:26:06.954Z,9.10
2022-11-12T04:29:11.834Z,9.20
2022-11-12T04:31:57.487Z,9.20
2022-11-12T04:34:43.739Z,9.20
2022-11-12T04:37:44.360Z,9.20
2022-11-12T04:40:51.672Z,9.20
2022-11-12T04:43:55.887Z,9.30
2022-11-12T04:46:41.238Z,9.00
2022-11-12T04:49:26.916Z,9.00
2022-11-12T04:52:13.765Z,9.20
2022-11-12T04:55:01.470Z,9.20
2022-11-12T04:57:46.737Z,9.20
2022-11-12T05:00:32.901Z,9.20
2022-11-12T05:03:18.715Z,9.20
2022-11-12T05:06:28.761Z,9.20
2022-11-12T05:09:15.361Z,9.30
2022-11-12T05:12:00.987Z,9.30
2022-11-12T05:14:46.745Z,9.30
2022-11-12T05:17:33.249Z,9.30
2022-11-12T05:20:19.975Z,9.30
2022-11-12T05:23:07.352Z,9.10
2022-11-12T05:25:54.380Z,9.10
2022-11-12T05:28:40.050Z,9.10
2022-11-12T05:31:25.914Z,9.10
2022-11-12T05:34:12.231Z,9.10
2022-11-12T05:36:58.370Z,9.20
2022-11-12T05:39:45.413Z,9.20
2022-11-12T05:42:30.867Z,9.10
2022-11-12T05:45:16.681Z,8.90
2022-11-12T05:48:02.257Z,8.80
2022-11-12T05:53:59.969Z,8.60
2022-11-12T05:56:46.091Z,8.50
2022-11-12T05:59:31.632Z,8.50
2022-11-12T06:02:17.449Z,8.60
2022-11-12T06:05:03.168Z,8.60
2022-11-12T06:07:49.708Z,8.70
2022-11-12T06:10:35.641Z,8.70
2022-11-12T06:13:23.791Z,8.70
2022-11-12T06:16:09.351Z,8.80
2022-11-12T06:18:56.475Z,8.70
2022-11-12T06:21:42.291Z,8.80
2022-11-12T06:24:34.934Z,8.80
2022-11-12T06:27:20.807Z,8.80
2022-11-12T06:30:07.231Z,8.80
2022-11-12T06:32:52.825Z,8.50
2022-11-12T06:35:42.805Z,8.40
2022-11-12T06:38:35.155Z,8.30
2022-11-12T06:41:20.787Z,8.40
2022-11-12T06:44:06.604Z,8.30
2022-11-12T06:46:52.110Z,8.20
2022-11-12T06:49:38.759Z,8.10
2022-11-12T06:52:24.722Z,8.10
2022-11-12T06:55:09.932Z,8.20
2022-11-12T06:57:56.823Z,8.30
2022-11-12T07:00:42.470Z,8.40
2022-11-12T07:03:28.093Z,8.60
2022-11-12T07:06:19.390Z,8.60
2022-11-12T07:09:05.444Z,8.60
2022-11-12T07:11:50.812Z,8.60
2022-11-12T07:14:36.627Z,8.60
2022-11-12T07:17:22.900Z,8.60
2022-11-12T07:20:09.447Z,8.50
2022-11-12T07:22:54.575Z,8.70
2022-11-12T07:25:40.247Z,8.70
2022-11-12T07:28:26.904Z,8.70
2022-11-12T07:31:16.181Z,8.80
2022-11-12T07:34:01.717Z,8.80
2022-11-12T07:36:48.660Z,8.80
2022-11-12T07:39:34.561Z,8.90
2022-11-12T07:42:21.224Z,9.10
2022-11-12T07:45:07.347Z,9.00
2022-11-12T07:47:53.041Z,8.90
2022-11-12T07:50:39.382Z,8.90
2022-11-12T07:53:26.329Z,8.80
2022-11-12T07:56:15.680Z,8.80
2022-11-12T07:59:02.707Z,8.80
2022-11-12T08:01:48.177Z,8.90
2022-11-12T08:04:33.684Z,9.00
2022-11-12T08:07:22.621Z,9.10
2022-11-12T08:10:08.737Z,9.30
2022-11-12T08:12:56.626Z,9.40
2022-11-12T08:15:49.450Z,9.40
2022-11-12T08:18:38.924Z,9.50
2022-11-12T08:21:27.149Z,9.60
2022-11-12T08:24:16.623Z,9.70
2022-11-12T08:27:03.481Z,9.70
2022-11-12T08:29:48.890Z,9.80
2022-11-12T08:32:34.827Z,9.80
2022-11-12T08:35:21.455Z,9.90
2022-11-12T08:38:09.365Z,10.00
2022-11-12T08:40:54.637Z,10.00
2022-11-12T08:43:43.318Z,10.10
2022-11-12T08:46:29.034Z,10.20
2022-11-12T08:49:15.770Z,10.30
2022-11-12T08:52:03.517Z,10.40
2022-11-12T08:54:49.833Z,10.50
2022-11-12T08:57:45.244Z,10.70
2022-11-12T09:00:37.210Z,10.70
2022-11-12T09:03:26.155Z,10.80
2022-11-12T09:06:13.885Z,10.90
2022-11-12T09:08:59.359Z,11.00
2022-11-12T09:11:45.218Z,11.10
2022-11-12T09:14:30.601Z,11.30
2022-11-12T09:17:17.539Z,11.40
2022-11-12T09:20:03.004Z,11.50
2022-11-12T09:22:49.963Z,11.50
2022-11-12T09:25:36.525Z,11.50
2022-11-12T09:28:23.280Z,11.60
2022-11-12T09:31:09.067Z,11.70
2022-11-12T09:33:54.839Z,11.70
2022-11-12T09:36:40.592Z,11.70
2022-11-12T09:39:27.425Z,11.80
2022-11-12T09:42:22.402Z,11.80
2022-11-12T09:45:27.080Z,11.90
2022-11-12T09:48:24.382Z,12.00
2022-11-12T09:51:32.047Z,12.00
2022-11-12T09:54:28.296Z,12.20
2022-11-12T09:57:17.091Z,12.30
2022-11-12T10:00:03.487Z,12.30
2022-11-12T10:02:55.492Z,12.50
2022-11-12T10:05:52.962Z,12.40
2022-11-12T10:08:40.630Z,12.70
2022-11-12T10:12:09.033Z,12.70
2022-11-12T10:15:50.142Z,12.80
2022-11-12T10:18:58.403Z,12.80
2022-11-12T10:21:52.966Z,13.10
2022-11-12T10:24:40.169Z,14.00
2022-11-12T10:27:36.704Z,15.60
2022-11-12T10:30:25.185Z,16.00
2022-11-12T10:33:17.000Z,16.50
2022-11-12T10:36:31.289Z,16.90
2022-11-12T10:40:06.947Z,17.00
2022-11-12T10:43:03.046Z,16.90
2022-11-12T10:45:53.286Z,17.10
2022-11-12T10:48:39.828Z,17.50
2022-11-12T10:51:29.118Z,17.70
2022-11-12T10:54:36.895Z,17.90
2022-11-12T10:57:27.276Z,18.00
2022-11-12T11:00:13.244Z,17.70
2022-11-12T11:03:01.079Z,18.00
2022-11-12T11:06:04.211Z,18.40
2022-11-12T11:08:51.092Z,18.50
2022-11-12T11:11:38.219Z,18.90
2022-11-12T11:14:29.957Z,19.00
2022-11-12T11:17:19.180Z,19.20
2022-11-12T11:20:13.614Z,18.90
2022-11-12T11:23:20.031Z,18.80
2022-11-12T11:26:50.618Z,19.00
2022-11-12T11:29:38.894Z,19.40
2022-11-12T11:32:42.692Z,19.40
2022-11-12T11:35:48.694Z,19.80
2022-11-12T11:38:40.790Z,20.90
2022-11-12T11:42:08.676Z,21.00
2022-11-12T11:45:17.421Z,21.40
2022-11-12T11:48:27.566Z,21.40
2022-11-12T11:51:48.224Z,22.60
2022-11-12T11:54:48.807Z,22.40
2022-11-12T11:57:59.124Z,22.90
2022-11-12T12:00:50.782Z,22.00
2022-11-12T12:03:43.311Z,21.70
2022-11-12T12:06:32.191Z,21.70
2022-11-12T12:09:30.430Z,22.10
2022-11-12T12:12:54.807Z,22.10
2022-11-12T12:16:08.356Z,22.20
2022-11-12T12:19:07.434Z,22.70
2022-11-12T12:21:55.742Z,24.20
2022-11-12T12:24:50.172Z,24.40
2022-11-12T12:27:43.720Z,24.00
2022-11-12T12:30:31.571Z,23.40
2022-11-12T12:33:32.509Z,22.20
2022-11-12T12:36:41.056Z,20.70
2022-11-12T12:39:55.182Z,19.70
2022-11-12T12:42:56.702Z,18.80
2022-11-12T12:45:44.438Z,18.70
2022-11-12T12:48:38.182Z,18.50
2022-11-12T12:51:24.646Z,18.10
2022-11-12T12:54:34.800Z,18.00
2022-11-12T12:57:38.745Z,17.70
2022-11-12T13:00:51.766Z,17.40
2022-11-12T13:03:44.467Z,17.20
2022-11-12T13:06:56.583Z,17.20
2022-11-12T13:09:41.902Z,17.00
2022-11-12T13:13:06.508Z,17.00
2022-11-12T13:15:54.387Z,17.00
2022-11-12T13:18:40.076Z,17.00
2022-11-12T13:21:25.822Z,17.00
2022-11-12T13:24:14.286Z,17.00
2022-11-12T13:27:00.394Z,17.00
2022-11-12T13:29:50.241Z,17.10
2022-11-12T13:32:49.566Z,17.10
2022-11-12T13:35:39.789Z,17.20
2022-11-12T13:38:27.305Z,17.20
2022-11-12T13:41:39.973Z,17.20
2022-11-12T13:44:26.970Z,17.20
2022-11-12T13:47:20.348Z,17.20
2022-11-12T13:50:10.100Z,17.30
2022-11-12T13:52:55.683Z,17.30
2022-11-12T13:55:49.403Z,17.30
2022-11-12T13:58:36.676Z,17.40
2022-11-12T14:01:24.521Z,17.40
2022-11-12T14:04:18.965Z,17.40
2022-11-12T14:07:35.868Z,17.40
2022-11-12T14:10:46.913Z,17.40
2022-11-12T14:14:03.881Z,17.40
2022-11-12T14:16:55.316Z,17.30
2022-11-12T14:20:19.548Z,17.30
2022-11-12T14:23:14.080Z,17.20
2022-11-12T14:25:59.726Z,17.20
2022-11-12T14:28:45.165Z,17.30
2022-11-12T14:31:32.661Z,17.10
2022-11-12T14:34:21.570Z,17.10
2022-11-12T14:37:29.579Z,17.10
2022-11-12T14:40:19.307Z,17.10
2022-11-12T14:43:06.019Z,17.00
2022-11-12T14:45:56.942Z,17.10
2022-11-12T14:48:53.384Z,17.10
2022-11-12T14:51:48.899Z,17.00
2022-11-12T14:54:40.648Z,16.90
2022-11-12T14:57:28.678Z,16.90
2022-11-12T15:00:45.005Z,16.90
2022-11-12T15:03:33.769Z,16.80
2022-11-12T15:06:31.678Z,16.70
2022-11-12T15:09:40.883Z,16.60
2022-11-12T15:12:31.514Z,16.60
2022-11-12T15:15:24.668Z,16.60
2022-11-12T15:18:19.067Z,16.60
2022-11-12T15:21:26.003Z,16.60
2022-11-12T15:24:12.770Z,16.60
2022-11-12T15:27:01.020Z,16.50
2022-11-12T15:29:46.580Z,16.50
2022-11-12T15:32:34.057Z,16.50
2022-11-12T15:35:21.743Z,16.40
2022-11-12T15:38:32.238Z,16.40
2022-11-12T15:41:24.948Z,16.30
2022-11-12T15:44:12.152Z,16.20
2022-11-12T15:46:58.921Z,16.10
2022-11-12T15:49:52.682Z,16.00
2022-11-12T15:52:38.002Z,16.00
2022-11-12T15:55:25.870Z,15.90
2022-11-12T15:58:31.888Z,15.80
2022-11-12T16:01:18.179Z,15.70
2022-11-12T16:04:06.963Z,15.70
2022-11-12T16:06:53.422Z,15.70
2022-11-12T16:09:40.223Z,15.50
2022-11-12T16:12:25.758Z,15.50
2022-11-12T16:15:19.429Z,15.40
2022-11-12T16:18:05.232Z,15.30
2022-11-12T16:20:51.961Z,15.20
2022-11-12T16:23:38.561Z,15.20
2022-11-12T16:26:28.544Z,15.10
2022-11-12T16:29:14.183Z,15.00
2022-11-12T16:32:01.160Z,15.00
2022-11-12T16:34:47.873Z,15.00
2022-11-12T16:37:33.890Z,14.90
2022-11-12T16:40:25.057Z,14.80
2022-11-12T16:43:11.828Z,14.80
2022-11-12T16:45:58.925Z,14.70
2022-11-12T16:48:44.671Z,14.60
2022-11-12T16:51:30.338Z,14.50
2022-11-12T16:54:16.969Z,14.50
2022-11-12T16:57:03.071Z,14.50
2022-11-12T16:59:49.812Z,14.40
2022-11-12T17:02:42.169Z,14.40
2022-11-12T17:05:29.812Z,14.30
2022-11-12T17:08:17.325Z,14.20
2022-11-12T17:11:07.423Z,14.10
2022-11-12T17:13:58.031Z,14.10
2022-11-12T17:16:46.412Z,14.00
2022-11-12T17:19:33.021Z,14.00
2022-11-12T17:22:20.194Z,14.00
2022-11-12T17:25:06.883Z,14.00
2022-11-12T17:27:53.529Z,13.90
2022-11-12T17:30:39.247Z,13.80
2022-11-12T17:33:24.477Z,13.80
2022-11-12T17:36:12.630Z,13.70
2022-11-12T17:39:00.429Z,13.80
2022-11-12T17:41:46.761Z,13.70
2022-11-12T17:44:32.219Z,13.70
2022-11-12T17:47:20.169Z,13.70
2022-11-12T17:50:05.792Z,13.70
2022-11-12T17:52:51.325Z,13.70
2022-11-12T17:55:36.916Z,13.60
2022-11-12T17:58:22.925Z,13.60
2022-11-12T18:01:09.944Z,13.50
2022-11-12T18:03:56.929Z,13.50
2022-11-12T18:06:42.262Z,13.40
2022-11-12T18:09:29.135Z,13.50
2022-11-12T18:12:15.533Z,13.50
2022-11-12T18:15:02.308Z,13.40
2022-11-12T18:17:48.327Z,13.30
2022-11-12T18:20:34.631Z,13.30
2022-11-12T18:23:21.012Z,13.30
2022-11-12T18:26:07.174Z,13.30
2022-11-12T18:28:56.522Z,13.30
2022-11-12T18:31:43.559Z,13.30
2022-11-12T18:34:29.211Z,13.20
2022-11-12T18:37:14.930Z,13.10
2022-11-12T18:40:01.924Z,13.10
2022-11-12T18:42:48.570Z,13.00
2022-11-12T18:45:35.066Z,12.90
2022-11-12T18:48:20.785Z,12.80
2022-11-12T18:51:14.781Z,12.80
2022-11-12T18:54:00.458Z,12.80
2022-11-12T18:56:48.863Z,12.70
2022-11-12T18:59:35.072Z,12.80
2022-11-12T19:02:21.286Z,12.70
2022-11-12T19:05:08.714Z,12.80
2022-11-12T19:07:55.201Z,12.70
2022-11-12T19:10:40.818Z,12.70
2022-11-12T19:13:27.923Z,12.70
2022-11-12T19:16:17.271Z,12.60
2022-11-12T19:19:03.726Z,12.60
2022-11-12T19:21:49.368Z,12.60
2022-11-12T19:24:35.105Z,12.60
2022-11-12T19:27:20.611Z,12.60
2022-11-12T19:30:06.926Z,12.60
2022-11-12T19:32:53.689Z,12.60
2022-11-12T19:35:41.007Z,12.60
2022-11-12T19:38:28.019Z,12.60
2022-11-12T19:41:19.801Z,12.60
2022-11-12T19:44:06.447Z,12.50
2022-11-12T19:46:55.253Z,12.40
2022-11-12T19:49:42.278Z,12.40
2022-11-12T19:52:28.705Z,12.40
2022-11-12T19:55:15.154Z,12.40
2022-11-12T19:58:02.674Z,12.30
2022-11-12T20:00:48.041Z,12.30
2022-11-12T20:03:34.008Z,12.30
2022-11-12T20:06:23.888Z,12.40
2022-11-12T20:09:10.160Z,12.30
2022-11-12T20:11:55.429Z,12.30
2022-11-12T20:14:42.257Z,12.30
2022-11-12T20:17:35.433Z,12.20
2022-11-12T20:20:21.107Z,12.20
2022-11-12T20:23:07.632Z,12.20
2022-11-12T20:25:53.707Z,12.20
2022-11-12T20:28:41.801Z,12.10
2022-11-12T20:31:29.201Z,12.10
2022-11-12T20:34:16.733Z,12.10
2022-11-12T20:37:04.623Z,12.00
2022-11-12T20:39:49.977Z,12.00
2022-11-12T20:42:36.910Z,11.90
2022-11-12T20:45:22.417Z,11.90
2022-11-12T20:48:09.096Z,11.90
2022-11-12T20:51:27.381Z,11.90
2022-11-12T20:54:13.250Z,11.80
2022-11-12T20:57:01.166Z,11.70
2022-11-12T20:59:50.223Z,11.80
2022-11-12T21:02:37.176Z,11.80
2022-11-12T21:05:26.005Z,11.70
2022-11-12T21:08:13.428Z,11.70
2022-11-12T21:11:01.691Z,11.60
2022-11-12T21:13:48.570Z,11.60
2022-11-12T21:16:34.206Z,11.60
2022-11-12T21:19:20.010Z,11.60
2022-11-12T21:22:05.301Z,11.50
2022-11-12T21:24:51.895Z,11.40
2022-11-12T21:27:38.008Z,11.40
2022-11-12T21:30:23.621Z,11.40
2022-11-12T21:33:11.664Z,11.50
2022-11-12T21:35:59.509Z,11.50
2022-11-12T21:38:46.910Z,11.50
2022-11-12T21:41:32.345Z,11.40
2022-11-12T21:44:19.344Z,11.40
2022-11-12T21:47:04.895Z,11.40
2022-11-12T21:49:50.816Z,11.40
2022-11-12T21:52:36.495Z,11.40
2022-11-12T21:55:23.011Z,11.40
2022-11-12T21:58:09.417Z,11.30
2022-11-12T22:01:06.706Z,11.30
2022-11-12T22:03:54.903Z,11.20
2022-11-12T22:06:41.308Z,11.20
2022-11-12T22:09:28.071Z,11.20
2022-11-12T22:12:13.533Z,11.20
2022-11-12T22:14:59.404Z,11.20
2022-11-12T22:17:45.956Z,11.20
2022-11-12T22:20:35.179Z,11.30
2022-11-12T22:23:22.952Z,11.40
2022-11-12T22:26:11.932Z,11.40
2022-11-12T22:28:58.966Z,11.50
2022-11-12T22:31:46.595Z,11.40
2022-11-12T22:34:33.245Z,11.40
2022-11-12T22:37:18.911Z,11.30
2022-11-12T22:40:09.150Z,11.20
2022-11-12T22:42:57.923Z,11.30
2022-11-12T22:45:49.827Z,11.30
2022-11-12T22:48:35.999Z,11.30
2022-11-12T22:51:23.946Z,11.20
2022-11-12T22:54:20.698Z,11.10
2022-11-12T22:57:06.471Z,11.10
2022-11-12T22:59:53.147Z,11.10
2022-11-12T23:02:43.399Z,11.10
2022-11-12T23:05:32.734Z,11.00
2022-11-12T23:08:20.889Z,11.10
2022-11-12T23:11:09.804Z,11.10
2022-11-12T23:13:56.920Z,11.10
2022-11-12T23:16:42.390Z,11.00
2022-11-12T23:19:28.218Z,11.00
2022-11-12T23:22:13.942Z,10.90
2022-11-12T23:24:59.518Z,11.00
2022-11-12T23:27:46.026Z,11.00
2022-11-12T23:30:32.755Z,11.00
2022-11-12T23:33:18.274Z,11.00
2022-11-12T23:36:08.342Z,11.00
2022-11-12T23:38:55.807Z,10.90
2022-11-12T23:41:47.025Z,10.80
2022-11-12T23:44:33.316Z,10.90
2022-11-12T23:47:20.030Z,10.90
2022-11-12T23:50:09.653Z,10.90
2022-11-12T23:52:56.033Z,10.90
2022-11-12T23:55:42.768Z,10.80
2022-11-12T23:58:29.397Z,10.80
